Time;durP1;ratioP1;P1;durP2;ratioP2;P2;SDS_P1;SDS_P2;PMS_P1;PMS_P2;Temp;Humidity;BMP_temperature;BMP_pressure;BME280_temperature;BME280_humidity;BME280_pressure;Samples;Min_cycle;Max_cycle;Signal;HPM_P1;HPM_P2
2022/06/24 00:00:11;;;;;;;6.97;1.80;;;22.90;1.00;;;;;;5073839;28;20471;-86
2022/06/24 00:03:30;;;;;;;4.93;1.57;;;22.80;1.00;;;;;;5060577;28;20858;-86
2022/06/24 00:06:15;;;;;;;6.77;1.23;;;22.70;1.00;;;;;;5038960;28;20415;-86
2022/06/24 00:12:07;;;;;;;4.40;1.10;;;22.50;1.00;;;;;;5033170;28;20915;-87
2022/06/24 00:14:42;;;;;;;5.50;1.33;;;22.50;1.00;;;;;;5016242;28;20793;-85
2022/06/24 00:17:27;;;;;;;6.47;1.57;;;22.40;1.00;;;;;;5013414;28;20521;-86
2022/06/24 00:23:22;;;;;;;2.50;0.87;;;22.40;1.00;;;;;;5040939;28;21048;-86
2022/06/24 00:25:49;;;;;;;4.47;1.67;;;22.30;1.00;;;;;;5018646;28;20430;-77
2022/06/24 00:28:34;;;;;;;3.30;1.20;;;22.40;1.00;;;;;;5038386;28;20433;-76
2022/06/24 00:31:16;;;;;;;5.43;1.63;;;22.40;1.00;;;;;;5052164;28;20472;-76
2022/06/24 00:33:46;;;;;;;2.93;1.20;;;22.40;1.00;;;;;;5037933;28;20429;-76
2022/06/24 00:36:11;;;;;;;5.47;1.80;;;22.30;1.00;;;;;;5015565;28;20847;-75
2022/06/24 00:39:10;;;;;;;6.50;1.33;;;22.20;1.00;;;;;;5042896;28;20532;-76
2022/06/24 00:45:39;;;;;;;7.53;1.60;;;22.20;1.00;;;;;;5073139;28;20415;-86
2022/06/24 00:48:13;;;;;;;2.70;1.20;;;22.10;1.00;;;;;;5086743;28;20418;-87
2022/06/24 00:50:44;;;;;;;7.17;1.27;;;22.10;1.00;;;;;;5072534;28;20465;-85
2022/06/24 00:53:22;;;;;;;7.30;1.23;;;22.10;1.00;;;;;;5073342;28;20411;-85
2022/06/24 00:55:48;;;;;;;7.83;1.40;;;22.10;1.00;;;;;;5065497;28;20416;-76
2022/06/24 00:58:22;;;;;;;6.70;1.70;;;22.10;1.00;;;;;;5066323;28;20412;-76
2022/06/24 01:00:52;;;;;;;11.03;1.20;;;22.10;1.00;;;;;;5056311;28;20388;-76
2022/06/24 01:03:40;;;;;;;5.50;0.90;;;22.10;1.00;;;;;;5064087;28;20456;-76
2022/06/24 01:06:16;;;;;;;5.60;1.27;;;22.10;1.00;;;;;;5073815;28;20501;-76
2022/06/24 01:08:46;;;;;;;4.23;1.10;;;22.10;1.00;;;;;;5060932;28;20959;-76
2022/06/24 01:11:33;;;;;;;3.90;1.63;;;22.10;1.00;;;;;;5086394;28;20729;-77
2022/06/24 01:14:00;;;;;;;4.87;1.30;;;22.20;1.00;;;;;;5073638;28;20526;-76
2022/06/24 01:16:40;;;;;;;3.77;1.10;;;22.20;1.00;;;;;;5062960;28;21002;-76
2022/06/24 01:19:09;;;;;;;6.53;1.57;;;22.20;1.00;;;;;;5062073;28;20415;-76
2022/06/24 01:21:42;;;;;;;4.47;1.20;;;22.10;1.00;;;;;;5073607;28;20420;-76
2022/06/24 01:24:40;;;;;;;2.57;1.60;;;22.20;1.00;;;;;;5062786;28;20445;-85
2022/06/24 01:27:10;;;;;;;9.63;1.63;;;22.10;1.00;;;;;;5067975;28;20428;-86
2022/06/24 01:30:10;;;;;;;5.43;1.33;;;22.10;1.00;;;;;;5066561;28;20983;-85
2022/06/24 01:32:52;;;;;;;10.83;1.37;;;22.00;1.00;;;;;;5064296;28;20407;-86
2022/06/24 01:39:10;;;;;;;3.43;1.53;;;21.90;1.00;;;;;;5062042;28;20430;-85
2022/06/24 01:41:40;;;;;;;4.27;1.40;;;21.80;1.00;;;;;;5055504;28;20460;-85
2022/06/24 01:44:40;;;;;;;2.87;1.70;;;21.80;1.00;;;;;;5069904;28;20448;-86
2022/06/24 01:47:40;;;;;;;4.83;1.83;;;21.80;1.00;;;;;;5056962;28;20420;-86
2022/06/24 01:50:40;;;;;;;3.13;1.80;;;21.70;1.00;;;;;;5052377;28;20411;-85
2022/06/24 01:56:27;;;;;;;5.90;1.40;;;21.50;1.00;;;;;;5059266;28;20404;-76
2022/06/24 01:58:58;;;;;;;5.33;1.70;;;21.50;1.00;;;;;;5066505;28;20404;-76
2022/06/24 02:01:52;;;;;;;9.27;1.50;;;21.40;1.00;;;;;;5068905;28;20418;-76
2022/06/24 02:04:28;;;;;;;4.60;1.50;;;21.20;1.00;;;;;;5079360;28;20505;-76
2022/06/24 02:07:10;;;;;;;11.03;2.80;;;21.20;1.00;;;;;;5076737;28;20866;-77
2022/06/24 02:15:40;;;;;;;8.57;2.13;;;21.10;1.00;;;;;;5071218;28;20430;-77
2022/06/24 02:18:28;;;;;;;5.33;2.10;;;20.90;1.00;;;;;;5067741;28;20829;-77
2022/06/24 02:21:40;;;;;;;3.87;2.00;;;20.90;1.00;;;;;;5059701;28;20767;-77
2022/06/24 02:24:13;;;;;;;8.90;2.10;;;20.80;1.00;;;;;;5073256;28;20454;-77
2022/06/24 02:26:41;;;;;;;3.83;1.87;;;20.80;1.00;;;;;;5063646;28;20403;-77
2022/06/24 02:29:10;;;;;;;8.37;2.57;;;20.70;1.00;;;;;;5085310;28;20385;-77
2022/06/24 02:31:41;;;;;;;8.07;2.40;;;20.70;1.00;;;;;;5078475;28;20407;-77
2022/06/24 02:34:10;;;;;;;5.30;2.40;;;20.60;1.00;;;;;;5075378;28;20417;-77
2022/06/24 02:36:36;;;;;;;9.77;2.47;;;20.50;1.00;;;;;;5064908;28;20462;-77
2022/06/24 02:39:10;;;;;;;9.53;3.10;;;20.50;1.00;;;;;;5076283;28;20422;-77
2022/06/24 02:41:40;;;;;;;8.70;2.73;;;20.50;1.00;;;;;;5062555;28;20635;-77
2022/06/24 02:44:10;;;;;;;17.67;3.30;;;20.50;1.00;;;;;;5088457;28;20931;-77
2022/06/24 02:46:40;;;;;;;5.33;2.80;;;20.40;1.00;;;;;;5081072;28;20812;-77
2022/06/24 02:49:10;;;;;;;7.47;2.67;;;20.40;1.00;;;;;;5076402;28;20410;-77
2022/06/24 02:51:40;;;;;;;14.50;3.10;;;20.40;1.00;;;;;;5062742;28;20823;-77
2022/06/24 02:54:10;;;;;;;9.77;2.70;;;20.40;1.00;;;;;;5075834;28;20973;-76
2022/06/24 02:56:36;;;;;;;6.50;2.87;;;20.40;1.00;;;;;;5069671;28;20406;-85
2022/06/24 02:59:10;;;;;;;7.00;2.70;;;20.30;1.00;;;;;;5074272;28;20431;-85
2022/06/24 03:01:40;;;;;;;10.47;2.97;;;20.20;1.00;;;;;;5064939;28;20175;-85
2022/06/24 03:11:12;;;;;;;11.13;3.30;;;20.10;1.00;;;;;;5073031;28;20444;-77
2022/06/24 03:13:40;;;;;;;14.00;3.40;;;20.10;1.00;;;;;;5072003;28;20511;-77
2022/06/24 03:16:10;;;;;;;7.73;2.70;;;20.00;1.00;;;;;;5063739;28;20415;-77
2022/06/24 03:18:36;;;;;;;5.80;2.67;;;20.00;2.10;;;;;;5074917;28;20417;-78
2022/06/24 03:21:10;;;;;;;9.00;2.80;;;20.00;3.90;;;;;;5066460;28;20398;-77
2022/06/24 03:23:46;;;;;;;8.40;3.10;;;20.00;4.50;;;;;;5086460;28;20656;-77
2022/06/24 03:26:40;;;;;;;11.33;3.77;;;19.90;5.70;;;;;;5064084;28;20391;-85
2022/06/24 03:29:10;;;;;;;17.53;3.60;;;19.80;15.20;;;;;;5063451;28;20417;-86
2022/06/24 03:31:40;;;;;;;11.27;3.53;;;19.90;17.50;;;;;;5088821;28;20891;-85
2022/06/24 03:34:40;;;;;;;12.70;3.93;;;20.00;18.10;;;;;;5060762;28;20418;-85
2022/06/24 03:37:10;;;;;;;11.20;3.80;;;20.00;18.80;;;;;;5061731;28;20947;-85
2022/06/24 03:39:40;;;;;;;6.80;3.50;;;20.00;18.80;;;;;;5072998;28;20990;-84
2022/06/24 03:42:10;;;;;;;6.50;3.53;;;20.10;23.10;;;;;;5061198;28;20767;-85
2022/06/24 03:44:40;;;;;;;7.87;3.70;;;20.10;23.40;;;;;;5071558;28;20459;-85
2022/06/24 03:47:10;;;;;;;12.30;3.90;;;20.20;25.10;;;;;;5075508;28;20434;-85
2022/06/24 03:49:41;;;;;;;6.63;3.87;;;20.20;23.20;;;;;;5057714;28;20422;-85
2022/06/24 03:52:10;;;;;;;4.83;3.00;;;20.20;24.20;;;;;;5069421;28;20425;-84
2022/06/24 03:54:40;;;;;;;11.57;3.50;;;20.20;26.30;;;;;;5069458;28;20415;-84
2022/06/24 03:57:10;;;;;;;14.07;4.20;;;20.30;23.70;;;;;;5071766;28;20483;-85
2022/06/24 03:59:40;;;;;;;15.00;3.80;;;20.30;22.50;;;;;;5075023;28;20491;-85
2022/06/24 04:02:10;;;;;;;7.73;3.77;;;20.30;22.70;;;;;;5068450;28;20422;-85
2022/06/24 04:05:10;;;;;;;8.23;4.07;;;20.30;17.50;;;;;;5057143;28;20821;-85
2022/06/24 04:08:10;;;;;;;7.63;4.00;;;20.30;18.00;;;;;;5055950;28;20415;-85
2022/06/24 04:10:41;;;;;;;23.87;5.17;;;20.30;22.20;;;;;;5085045;28;20445;-78
2022/06/24 04:13:28;;;;;;;9.90;5.23;;;20.30;19.40;;;;;;5084945;28;20420;-78
2022/06/24 04:16:11;;;;;;;9.60;4.83;;;20.30;21.20;;;;;;5074822;28;20461;-77
2022/06/24 04:18:40;;;;;;;14.00;4.93;;;20.30;21.40;;;;;;5061440;28;20406;-77
2022/06/24 04:21:14;;;;;;;7.07;4.90;;;20.40;19.10;;;;;;5065685;28;20421;-77
2022/06/24 04:23:40;;;;;;;14.70;5.43;;;20.40;17.50;;;;;;5069896;28;20453;-78
2022/06/24 04:33:46;;;;;;;10.10;5.77;;;20.50;10.00;;;;;;5074115;28;20886;-84
2022/06/24 04:36:16;;;;;;;9.13;6.47;;;20.50;5.80;;;;;;5071928;28;20454;-73
2022/06/24 04:38:42;;;;;;;10.33;5.60;;;20.60;6.40;;;;;;5075209;28;20815;-73
2022/06/24 04:41:18;;;;;;;8.13;5.87;;;20.50;5.80;;;;;;5076168;28;20489;-74
2022/06/24 04:43:46;;;;;;;11.17;6.10;;;20.60;6.90;;;;;;5076025;28;20441;-73
2022/06/24 04:46:12;;;;;;;11.00;5.90;;;20.60;6.00;;;;;;5081489;28;20421;-73
2022/06/24 04:48:46;;;;;;;10.17;7.80;;;20.60;8.10;;;;;;5066137;28;20889;-73
2022/06/24 04:51:16;;;;;;;10.60;7.00;;;20.50;1.00;;;;;;5076200;28;20631;-73
2022/06/24 04:53:42;;;;;;;11.03;7.07;;;20.50;1.00;;;;;;5073672;28;20414;-74
2022/06/24 04:56:22;;;;;;;13.20;8.47;;;20.50;1.20;;;;;;5069211;28;20400;-73
2022/06/24 05:02:34;;;;;;;14.03;7.60;;;20.60;4.60;;;;;;5073854;28;20417;-78
2022/06/24 05:09:04;;;;;;;9.53;6.30;;;20.80;1.00;;;;;;5064928;28;20814;-77
2022/06/24 05:11:30;;;;;;;7.70;6.37;;;20.90;1.00;;;;;;5063481;28;20472;-78
2022/06/24 05:13:55;;;;;;;13.90;6.80;;;20.90;1.00;;;;;;5072401;28;20454;-79
2022/06/24 05:16:52;;;;;;;9.67;6.50;;;21.00;1.00;;;;;;5072639;28;20411;-77
2022/06/24 05:19:22;;;;;;;10.80;6.57;;;21.10;1.00;;;;;;5061171;28;20178;-77
2022/06/24 05:31:53;;;;;;;7.77;5.00;;;21.10;1.00;;;;;;5065052;28;20414;-80
2022/06/24 05:34:34;;;;;;;8.90;5.20;;;21.10;1.00;;;;;;5062837;28;20934;-83
2022/06/24 05:37:34;;;;;;;10.40;5.23;;;21.20;1.00;;;;;;5074006;28;20227;-80
2022/06/24 05:40:11;;;;;;;9.30;5.07;;;21.20;1.00;;;;;;5072210;28;20419;-80
2022/06/24 05:42:36;;;;;;;11.77;4.70;;;21.20;1.00;;;;;;5073687;28;20460;-74
2022/06/24 05:45:02;;;;;;;6.30;4.93;;;21.10;1.00;;;;;;5070257;28;20398;-74
2022/06/24 05:47:34;;;;;;;10.67;5.03;;;21.20;1.00;;;;;;5083959;28;20640;-74
2022/06/24 05:50:00;;;;;;;9.40;4.50;;;21.20;1.00;;;;;;5069653;28;20740;-74
2022/06/24 05:55:22;;;;;;;6.70;4.20;;;21.20;1.00;;;;;;5076637;28;20290;-74
2022/06/24 06:04:32;;;;;;;17.00;5.47;;;21.20;1.00;;;;;;5068261;28;20424;-80
2022/06/24 06:07:52;;;;;;;10.27;5.43;;;21.20;1.00;;;;;;5065431;28;20419;-80
2022/06/24 06:10:17;;;;;;;7.37;4.93;;;21.30;1.00;;;;;;5075918;28;20196;-80
2022/06/24 06:12:46;;;;;;;14.07;5.60;;;21.60;1.00;;;;;;5077137;28;20513;-75
2022/06/24 06:15:12;;;;;;;7.23;5.60;;;21.80;1.00;;;;;;5076717;28;20178;-75
2022/06/24 06:17:40;;;;;;;8.53;5.90;;;22.00;1.00;;;;;;5076268;28;20480;-74
2022/06/24 06:20:06;;;;;;;7.40;5.83;;;22.10;1.00;;;;;;5072734;28;20578;-74
2022/06/24 06:22:34;;;;;;;11.20;5.70;;;22.10;1.00;;;;;;5076186;28;20773;-74
2022/06/24 06:25:10;;;;;;;11.43;6.10;;;22.00;1.00;;;;;;5089799;28;20422;-74
2022/06/24 06:27:37;;;;;;;10.37;5.90;;;22.20;1.00;;;;;;5076507;28;20479;-74
2022/06/24 06:30:05;;;;;;;9.10;5.43;;;22.40;1.00;;;;;;5084866;28;20421;-74
2022/06/24 06:36:11;;;;;;;8.30;5.30;;;22.40;1.00;;;;;;5073610;28;20793;-84
2022/06/24 06:38:58;;;;;;;6.20;4.90;;;22.60;1.00;;;;;;5056399;28;20405;-84
2022/06/24 06:44:45;;;;;;;6.63;4.70;;;22.70;1.00;;;;;;5065013;28;20463;-76
2022/06/24 06:47:22;;;;;;;6.23;4.23;;;22.80;1.00;;;;;;5062075;28;20804;-77
2022/06/24 06:50:22;;;;;;;11.93;4.50;;;22.90;1.00;;;;;;5065911;28;20642;-76
2022/06/24 06:52:52;;;;;;;5.73;4.17;;;23.00;1.00;;;;;;5069958;28;20508;-77
2022/06/24 06:55:34;;;;;;;6.50;4.07;;;23.30;1.00;;;;;;5056219;28;20466;-77
2022/06/24 06:58:00;;;;;;;8.20;3.80;;;23.30;1.00;;;;;;5073932;28;20788;-76
2022/06/24 07:00:26;;;;;;;7.77;3.30;;;23.40;1.00;;;;;;5067453;28;20945;-82
2022/06/24 07:02:52;;;;;;;6.50;3.80;;;23.40;1.00;;;;;;5069969;28;20514;-83
2022/06/24 07:05:18;;;;;;;9.43;3.80;;;23.30;1.00;;;;;;5073437;28;20180;-82
2022/06/24 07:07:43;;;;;;;6.00;3.77;;;23.30;1.00;;;;;;5073148;28;20951;-82
2022/06/24 07:10:09;;;;;;;5.80;3.47;;;23.10;1.00;;;;;;5073618;28;20176;-82
2022/06/24 07:12:34;;;;;;;7.70;3.73;;;23.10;1.00;;;;;;5074645;28;20590;-82
2022/06/24 07:15:00;;;;;;;9.90;3.60;;;23.00;1.00;;;;;;5061913;28;20414;-77
2022/06/24 07:17:26;;;;;;;14.10;3.37;;;22.90;1.00;;;;;;5064788;28;20564;-77
2022/06/24 07:19:51;;;;;;;11.60;3.20;;;23.10;1.00;;;;;;5074240;28;20172;-77
2022/06/24 07:22:17;;;;;;;11.33;3.33;;;23.30;1.00;;;;;;5078359;28;20203;-78
2022/06/24 07:24:44;;;;;;;7.30;3.10;;;23.40;1.00;;;;;;5075190;28;20679;-77
2022/06/24 07:27:11;;;;;;;6.63;3.17;;;23.40;1.00;;;;;;5073979;28;20180;-79
2022/06/24 07:29:37;;;;;;;3.43;3.13;;;23.50;1.00;;;;;;5074321;28;20423;-86
2022/06/24 07:32:04;;;;;;;10.63;4.33;;;23.30;1.00;;;;;;5073045;28;20810;-79
2022/06/24 07:34:31;;;;;;;5.57;2.73;;;23.20;1.00;;;;;;5073543;28;20444;-80
2022/06/24 07:36:57;;;;;;;7.17;2.67;;;23.20;1.00;;;;;;5074047;28;20420;-77
2022/06/24 07:39:23;;;;;;;5.10;2.90;;;23.30;1.00;;;;;;5071800;28;20474;-73
2022/06/24 07:41:50;;;;;;;6.90;2.63;;;23.40;1.00;;;;;;5077945;28;20426;-75
2022/06/24 07:44:15;;;;;;;3.20;2.80;;;23.60;1.00;;;;;;5071729;28;20913;-80
2022/06/24 07:46:41;;;;;;;7.03;2.60;;;23.90;1.00;;;;;;5073445;28;20508;-80
2022/06/24 07:49:06;;;;;;;3.30;2.30;;;24.10;1.00;;;;;;5073416;28;20225;-80
2022/06/24 07:51:32;;;;;;;5.20;2.50;;;24.10;1.00;;;;;;5073864;28;20180;-80
2022/06/24 07:53:58;;;;;;;5.37;2.47;;;24.20;1.00;;;;;;5078857;28;20194;-80
2022/06/24 07:56:58;;;;;;;3.10;1.90;;;24.20;1.00;;;;;;5072768;28;20802;-81
2022/06/24 07:59:59;;;;;;;7.23;2.50;;;24.20;1.00;;;;;;5061336;28;20180;-79
2022/06/24 08:02:28;;;;;;;7.13;2.50;;;24.60;1.00;;;;;;5073963;28;20424;-89
2022/06/24 08:08:16;;;;;;;15.27;2.10;;;24.80;1.00;;;;;;5064140;28;20400;-90
2022/06/24 08:11:04;;;;;;;3.20;2.20;;;24.60;1.00;;;;;;5055140;28;20421;-92
2022/06/24 08:16:52;;;;;;;2.03;1.83;;;24.50;1.00;;;;;;5062616;28;20554;-78
2022/06/24 08:19:40;;;;;;;6.60;2.00;;;24.80;1.00;;;;;;5062587;28;20889;-87
2022/06/24 08:22:46;;;;;;;3.97;2.00;;;24.80;1.00;;;;;;5072201;28;20196;-81
2022/06/24 08:25:16;;;;;;;5.90;2.10;;;24.80;1.00;;;;;;5072982;28;20423;-81
2022/06/24 08:31:04;;;;;;;4.07;2.10;;;24.80;1.00;;;;;;5059454;28;20555;-74
2022/06/24 08:33:34;;;;;;;1.90;1.80;;;25.10;1.00;;;;;;5067513;28;20456;-74
2022/06/24 08:36:00;;;;;;;17.93;2.90;;;25.30;1.00;;;;;;5066442;28;20265;-74
2022/06/24 08:38:40;;;;;;;6.73;2.27;;;25.30;1.00;;;;;;5073319;28;20425;-77
2022/06/24 08:41:06;;;;;;;4.53;1.83;;;25.20;1.00;;;;;;5061555;28;20408;-76
2022/06/24 08:43:42;;;;;;;2.73;1.80;;;25.20;1.00;;;;;;5069892;28;20467;-76
2022/06/24 08:46:10;;;;;;;5.80;2.30;;;24.80;1.00;;;;;;5067133;28;20220;-76
2022/06/24 08:48:59;;;;;;;7.47;2.30;;;24.80;1.00;;;;;;5066512;28;20491;-76
2022/06/24 08:51:41;;;;;;;4.20;2.10;;;24.40;1.00;;;;;;5073161;28;20460;-75
2022/06/24 08:54:09;;;;;;;3.83;2.40;;;24.10;1.00;;;;;;5073749;28;20426;-76
2022/06/24 08:56:35;;;;;;;4.70;2.00;;;23.80;1.00;;;;;;5068943;28;20427;-76
2022/06/24 08:59:01;;;;;;;7.93;2.70;;;23.60;1.00;;;;;;5072329;28;20428;-77
2022/06/24 09:01:27;;;;;;;7.43;2.57;;;23.40;1.00;;;;;;5068932;28;20445;-89
2022/06/24 09:03:53;;;;;;;5.20;2.40;;;23.20;1.00;;;;;;5073346;28;21011;-88
2022/06/24 09:06:19;;;;;;;2.90;2.40;;;23.20;1.00;;;;;;5071906;28;20175;-88
2022/06/24 09:08:49;;;;;;;4.03;2.40;;;23.20;1.00;;;;;;5066724;28;20267;-89
2022/06/24 09:11:15;;;;;;;9.80;2.37;;;23.30;1.00;;;;;;5065189;28;20206;-88
2022/06/24 09:13:49;;;;;;;5.80;2.20;;;23.00;1.00;;;;;;5072076;28;20477;-89
2022/06/24 09:16:20;;;;;;;2.43;2.23;;;23.00;1.00;;;;;;5074802;28;20180;-89
2022/06/24 09:18:54;;;;;;;5.57;2.27;;;22.90;1.00;;;;;;5064802;28;20474;-88
2022/06/24 09:21:29;;;;;;;2.33;2.13;;;22.80;1.00;;;;;;5072118;28;20434;-88
2022/06/24 09:23:57;;;;;;;4.17;2.60;;;22.80;1.00;;;;;;5071606;28;20936;-88
2022/06/24 09:26:42;;;;;;;4.90;2.53;;;22.60;1.00;;;;;;5071902;28;20424;-88
2022/06/24 09:29:13;;;;;;;4.53;2.60;;;22.50;1.00;;;;;;5075137;28;20436;-88
2022/06/24 09:31:39;;;;;;;3.43;2.43;;;22.50;1.00;;;;;;5072322;28;20421;-88
2022/06/24 09:34:16;;;;;;;2.63;2.43;;;22.60;1.00;;;;;;5071422;28;20428;-89
2022/06/24 09:36:43;;;;;;;4.47;2.77;;;22.90;1.00;;;;;;5071550;28;20473;-89
2022/06/24 09:39:14;;;;;;;2.50;2.40;;;23.10;1.00;;;;;;5071993;28;20427;-88
2022/06/24 09:41:51;;;;;;;4.83;3.20;;;23.30;1.00;;;;;;5071798;28;20417;-89
2022/06/24 09:44:18;;;;;;;4.03;2.30;;;23.70;1.00;;;;;;5071648;28;20889;-88
2022/06/24 09:46:45;;;;;;;4.40;2.20;;;24.00;1.00;;;;;;5074993;28;20769;-89
2022/06/24 09:49:12;;;;;;;4.47;2.20;;;24.60;1.00;;;;;;5073203;28;20432;-89
2022/06/24 09:51:39;;;;;;;4.00;2.37;;;25.00;1.00;;;;;;5072702;28;20419;-89
2022/06/24 09:54:06;;;;;;;2.37;2.17;;;25.50;1.00;;;;;;5073163;28;20471;-89
2022/06/24 09:56:32;;;;;;;4.03;2.10;;;25.50;1.00;;;;;;5069000;28;20463;-88
2022/06/24 10:01:44;;;;;;;10.90;2.00;;;25.50;1.00;;;;;;5063331;28;20985;-89
2022/06/24 10:04:15;;;;;;;6.03;1.97;;;25.40;1.00;;;;;;5072744;28;20460;-89
2022/06/24 10:06:45;;;;;;;5.20;2.20;;;25.50;1.00;;;;;;5072831;28;20186;-91
2022/06/24 10:09:11;;;;;;;3.60;1.90;;;25.30;1.00;;;;;;5072782;28;20424;-89
2022/06/24 10:11:41;;;;;;;3.40;2.30;;;25.70;1.00;;;;;;5072422;28;20973;-89
2022/06/24 10:14:08;;;;;;;3.43;2.17;;;26.10;1.00;;;;;;5072561;28;20927;-89
2022/06/24 10:16:35;;;;;;;2.57;2.30;;;26.50;1.00;;;;;;5073137;28;20419;-89
2022/06/24 10:19:02;;;;;;;2.57;2.17;;;26.70;1.00;;;;;;5080939;28;20444;-90
2022/06/24 10:21:29;;;;;;;3.30;2.73;;;26.70;1.00;;;;;;5072578;28;20431;-89
2022/06/24 10:23:56;;;;;;;4.73;2.17;;;27.00;1.00;;;;;;5071530;28;20459;-90
2022/06/24 10:26:47;;;;;;;5.37;2.60;;;27.00;1.00;;;;;;5076377;28;20930;-90
2022/06/24 10:29:21;;;;;;;6.30;2.57;;;27.40;1.00;;;;;;5073411;28;20410;-89
2022/06/24 10:34:28;;;;;;;3.60;2.13;;;28.00;1.00;;;;;;5074258;28;20419;-75
2022/06/24 10:37:10;;;;;;;1.83;1.63;;;27.90;1.00;;;;;;5075799;28;20396;-75
2022/06/24 10:39:47;;;;;;;2.57;1.80;;;27.60;1.00;;;;;;5073601;28;20435;-75
2022/06/24 10:42:20;;;;;;;3.13;2.40;;;27.40;1.00;;;;;;5074924;28;20422;-75
2022/06/24 10:45:05;;;;;;;2.80;1.73;;;27.50;1.00;;;;;;5079310;28;20454;-75
2022/06/24 10:47:52;;;;;;;2.30;2.10;;;27.30;1.00;;;;;;5072295;28;20422;-89
2022/06/24 10:54:01;;;;;;;3.33;2.03;;;27.60;1.00;;;;;;5073870;28;20512;-89
2022/06/24 10:56:44;;;;;;;1.70;1.60;;;27.40;1.00;;;;;;5074172;28;20525;-89
2022/06/24 11:02:35;;;;;;;3.33;1.83;;;26.90;1.00;;;;;;5075929;28;20978;-76
2022/06/24 11:05:01;;;;;;;2.17;1.77;;;27.00;1.00;;;;;;5074482;28;20436;-76
2022/06/24 11:07:28;;;;;;;2.60;1.50;;;27.00;1.00;;;;;;5075507;28;20409;-76
2022/06/24 11:09:54;;;;;;;1.87;1.53;;;26.80;1.00;;;;;;5066610;28;20442;-75
2022/06/24 11:12:31;;;;;;;2.67;1.90;;;26.70;1.00;;;;;;5064509;28;20443;-75
2022/06/24 11:14:59;;;;;;;3.83;1.77;;;26.60;1.00;;;;;;5066686;28;20182;-75
2022/06/24 11:17:28;;;;;;;4.67;1.80;;;26.60;1.00;;;;;;5075157;28;20483;-75
2022/06/24 11:19:54;;;;;;;1.60;1.47;;;26.40;1.00;;;;;;5075687;28;20768;-76
2022/06/24 11:22:20;;;;;;;2.10;1.67;;;26.20;1.00;;;;;;5083889;28;20416;-76
2022/06/24 11:24:53;;;;;;;1.73;1.63;;;26.40;1.00;;;;;;5087123;28;20193;-75
2022/06/24 11:27:19;;;;;;;2.73;1.40;;;26.60;1.00;;;;;;5089774;28;20614;-75
2022/06/24 11:30:11;;;;;;;4.17;1.70;;;27.00;1.00;;;;;;5074156;28;20477;-76
2022/06/24 11:32:54;;;;;;;3.13;1.67;;;26.80;1.00;;;;;;5071896;28;20431;-88
2022/06/24 11:35:21;;;;;;;2.90;1.80;;;26.90;1.00;;;;;;5074812;28;20926;-89
2022/06/24 11:37:48;;;;;;;1.50;1.40;;;26.90;1.00;;;;;;5071920;28;21057;-89
2022/06/24 11:40:35;;;;;;;6.43;1.60;;;26.80;1.00;;;;;;5074664;28;20418;-88
2022/06/24 11:43:15;;;;;;;1.57;1.40;;;26.90;1.00;;;;;;5068923;28;20457;-88
2022/06/24 11:45:43;;;;;;;3.90;1.90;;;27.00;1.00;;;;;;5074930;28;20420;-89
2022/06/24 11:48:12;;;;;;;8.33;1.67;;;27.10;1.00;;;;;;5074503;28;20840;-76
2022/06/24 11:50:39;;;;;;;3.20;1.90;;;27.00;1.00;;;;;;5073816;28;20417;-76
2022/06/24 11:53:06;;;;;;;4.13;2.00;;;26.90;1.00;;;;;;5073903;28;20486;-76
2022/06/24 11:55:37;;;;;;;3.70;1.63;;;26.90;1.00;;;;;;5072389;28;20927;-76
2022/06/24 11:58:11;;;;;;;1.70;1.60;;;27.10;1.00;;;;;;5073627;28;20900;-76
2022/06/24 12:00:40;;;;;;;1.63;1.43;;;27.30;1.00;;;;;;5073835;28;20773;-76
2022/06/24 12:03:08;;;;;;;2.00;1.80;;;27.30;1.00;;;;;;5074676;28;20449;-88
2022/06/24 12:05:38;;;;;;;3.80;1.50;;;27.40;1.00;;;;;;5077659;28;20423;-88
2022/06/24 12:08:04;;;;;;;1.50;1.50;;;27.40;1.00;;;;;;5057636;28;20905;-89
2022/06/24 12:10:30;;;;;;;3.40;1.77;;;27.50;1.00;;;;;;5068542;28;20421;-89
2022/06/24 12:13:07;;;;;;;2.03;1.80;;;27.60;1.00;;;;;;5072998;28;20454;-89
2022/06/24 12:15:52;;;;;;;5.67;1.50;;;27.60;1.00;;;;;;5074337;28;20188;-89
2022/06/24 12:18:22;;;;;;;2.27;1.40;;;27.90;1.00;;;;;;5074408;28;20416;-89
2022/06/24 12:21:01;;;;;;;3.87;1.70;;;27.90;1.00;;;;;;5068023;28;20427;-89
2022/06/24 12:23:38;;;;;;;6.80;1.50;;;28.00;1.00;;;;;;5074042;28;20960;-89
2022/06/24 12:26:06;;;;;;;1.87;1.70;;;28.10;1.00;;;;;;5074245;28;20468;-88
2022/06/24 12:28:33;;;;;;;2.00;1.53;;;28.30;1.00;;;;;;5073691;28;20423;-89
2022/06/24 12:31:06;;;;;;;2.50;1.70;;;28.30;1.00;;;;;;5083886;28;20481;-88
2022/06/24 12:33:44;;;;;;;1.67;1.57;;;28.40;1.00;;;;;;5073143;28;20436;-76
2022/06/24 12:36:18;;;;;;;4.00;1.30;;;28.50;1.00;;;;;;5073226;28;20438;-76
2022/06/24 12:38:53;;;;;;;2.10;1.40;;;28.60;1.00;;;;;;5061579;28;20522;-77
2022/06/24 12:41:21;;;;;;;1.97;1.30;;;28.80;1.00;;;;;;5071270;28;20836;-76
2022/06/24 12:43:56;;;;;;;1.73;1.60;;;29.00;1.00;;;;;;5071587;28;20959;-76
2022/06/24 12:52:10;;;;;;;2.10;1.40;;;29.50;1.00;;;;;;5072117;28;20545;-76
2022/06/24 12:54:35;;;;;;;1.90;1.37;;;29.90;1.00;;;;;;5072131;28;20938;-76
2022/06/24 12:57:01;;;;;;;3.47;1.33;;;30.00;1.00;;;;;;5071784;28;20192;-76
2022/06/24 12:59:30;;;;;;;6.83;1.30;;;29.90;1.00;;;;;;5071702;28;20192;-76
2022/06/24 13:01:56;;;;;;;1.43;1.33;;;29.90;1.00;;;;;;5072910;28;20182;-88
2022/06/24 13:04:22;;;;;;;3.10;1.53;;;30.00;1.00;;;;;;5071071;28;20478;-88
2022/06/24 13:06:48;;;;;;;4.20;1.40;;;30.30;1.00;;;;;;5073563;28;20174;-89
2022/06/24 13:09:13;;;;;;;1.50;1.40;;;30.50;1.00;;;;;;5073207;28;20426;-88
2022/06/24 13:11:39;;;;;;;1.43;1.20;;;30.50;1.00;;;;;;5073179;28;20638;-88
2022/06/24 13:14:05;;;;;;;2.90;1.57;;;30.70;1.00;;;;;;5073288;28;20266;-89
2022/06/24 13:16:37;;;;;;;1.77;1.60;;;30.60;1.00;;;;;;5073039;28;20189;-89
2022/06/24 13:19:02;;;;;;;3.30;1.50;;;30.50;1.00;;;;;;5071688;28;20440;-76
2022/06/24 13:21:28;;;;;;;1.50;1.40;;;30.40;1.00;;;;;;5072468;28;20430;-75
2022/06/24 13:23:54;;;;;;;6.20;1.60;;;30.70;1.00;;;;;;5072731;28;20244;-77
2022/06/24 13:26:20;;;;;;;1.67;1.57;;;30.60;1.00;;;;;;5072494;28;20592;-78
2022/06/24 13:28:46;;;;;;;1.50;1.40;;;30.50;1.00;;;;;;5067945;28;20183;-77
2022/06/24 13:31:12;;;;;;;1.30;1.20;;;30.80;1.00;;;;;;5063640;28;20896;-77
2022/06/24 13:33:38;;;;;;;1.40;1.30;;;31.00;1.00;;;;;;5073381;28;20224;-86
2022/06/24 13:36:04;;;;;;;1.17;1.10;;;31.50;1.00;;;;;;5071152;28;20429;-81
2022/06/24 13:38:29;;;;;;;15.87;1.97;;;31.80;1.00;;;;;;5072575;28;20586;-81
2022/06/24 13:40:55;;;;;;;1.73;1.10;;;32.10;1.00;;;;;;5072086;28;20670;-81
2022/06/24 13:43:21;;;;;;;2.13;1.07;;;32.30;1.00;;;;;;5072262;28;20191;-77
2022/06/24 13:45:47;;;;;;;3.40;1.40;;;32.60;1.00;;;;;;5064621;28;20226;-82
2022/06/24 13:48:16;;;;;;;3.00;1.10;;;32.30;1.00;;;;;;5071817;28;20186;-79
2022/06/24 13:50:42;;;;;;;14.57;1.30;;;32.50;1.00;;;;;;5071968;28;20420;-78
2022/06/24 13:53:08;;;;;;;1.00;1.00;;;32.70;1.00;;;;;;5070260;28;20421;-87
2022/06/24 13:55:34;;;;;;;5.03;1.10;;;32.10;1.00;;;;;;5070866;28;20535;-85
2022/06/24 13:57:59;;;;;;;11.03;1.50;;;31.90;1.00;;;;;;5071101;28;20643;-81
2022/06/24 14:00:25;;;;;;;5.53;1.10;;;32.10;1.00;;;;;;5075412;28;20175;-80
2022/06/24 14:02:51;;;;;;;7.17;1.23;;;32.50;1.00;;;;;;5075815;28;20206;-77
2022/06/24 14:05:17;;;;;;;1.20;1.10;;;32.70;1.00;;;;;;5075633;28;20171;-77
2022/06/24 14:07:42;;;;;;;1.37;1.20;;;32.80;1.00;;;;;;5075024;28;20183;-76
2022/06/24 14:10:08;;;;;;;2.50;1.40;;;32.70;1.00;;;;;;5075273;28;20197;-77
2022/06/24 14:12:34;;;;;;;1.57;1.30;;;32.40;1.00;;;;;;5075139;28;20187;-77
2022/06/24 14:14:59;;;;;;;5.30;1.50;;;32.20;1.00;;;;;;5075278;28;20195;-76
2022/06/24 14:17:25;;;;;;;1.40;1.30;;;32.50;1.00;;;;;;5076117;28;20190;-77
2022/06/24 14:19:51;;;;;;;1.20;1.10;;;32.50;1.00;;;;;;5074977;28;20197;-77
2022/06/24 14:22:16;;;;;;;1.53;1.00;;;32.50;1.00;;;;;;5084461;28;20190;-77
2022/06/24 14:24:42;;;;;;;4.30;1.27;;;32.60;1.00;;;;;;5075307;28;20195;-78
2022/06/24 14:27:09;;;;;;;1.57;1.40;;;32.60;1.00;;;;;;5068581;28;20175;-73
2022/06/24 14:29:36;;;;;;;1.37;1.27;;;32.90;1.00;;;;;;5072917;28;20179;-73
2022/06/24 14:32:03;;;;;;;1.20;1.20;;;33.00;1.00;;;;;;5075124;28;20417;-72
2022/06/24 14:34:31;;;;;;;2.00;1.20;;;33.20;1.00;;;;;;5076342;28;20783;-78
2022/06/24 14:40:11;;;;;;;1.33;1.07;;;33.40;1.00;;;;;;5058028;28;20464;-79
2022/06/24 14:42:52;;;;;;;1.63;1.13;;;33.60;1.00;;;;;;5076045;28;20733;-79
2022/06/24 14:45:30;;;;;;;1.43;1.30;;;33.80;1.00;;;;;;5072014;28;20856;-77
2022/06/24 14:47:58;;;;;;;1.83;1.23;;;33.50;1.00;;;;;;5076276;28;20401;-73
2022/06/24 14:50:25;;;;;;;1.60;1.00;;;33.30;1.00;;;;;;5075656;28;20444;-73
2022/06/24 14:52:51;;;;;;;1.30;1.20;;;32.90;1.00;;;;;;5061674;28;20445;-73
2022/06/24 14:55:17;;;;;;;2.17;1.17;;;32.80;1.00;;;;;;5068738;28;20769;-72
2022/06/24 14:57:43;;;;;;;1.43;1.20;;;32.50;1.00;;;;;;5075624;28;20207;-73
2022/06/24 15:00:09;;;;;;;2.17;1.53;;;32.50;1.00;;;;;;5075627;28;20210;-72
2022/06/24 15:02:35;;;;;;;1.33;1.23;;;32.80;1.00;;;;;;5075693;28;20417;-73
2022/06/24 15:05:01;;;;;;;1.20;1.20;;;33.20;1.00;;;;;;5075726;28;20459;-77